Terminal Aerodrome Forecast
Issued by NWS Charleston, WV

Current Version | Previous Version | Text Only | Print | Product List | Glossary Off
Versions: 1 2 3 4 5 6 7 8 9 10 11 12 13 14 15 16 17 18 19 20 21 22 23 24 25 26

392
FTUS41 KRLX 180454 AAB
TAFBKW
TAF AMD
KBKW 180454Z 1805/1824 31008KT 6SM BR OVC008
     FM180900 29006KT P6SM SCT020
     FM181400 27009KT P6SM FEW250=

USA.gov is the U.S. government's official web portal to all federal, state and local government web resources and services.